sensor_id;sensor_type;location;lat;lon;timestamp;pressure;altitude;pressure_sealevel;temperature;humidity
68199;BME280;55021;51.554;17.044;2023-08-24T00:12:50;100860.19;;;16.67;83.82
68199;BME280;55021;51.554;17.044;2023-08-24T00:27:53;100866.78;;;16.43;87.33
68199;BME280;55021;51.554;17.044;2023-08-24T00:42:55;100868.31;;;16.96;81.67
68199;BME280;55021;51.554;17.044;2023-08-24T00:57:58;100806.69;;;15.47;87.45
68199;BME280;55021;51.554;17.044;2023-08-24T01:13:02;100859.34;;;16.08;85.66
68199;BME280;55021;51.554;17.044;2023-08-24T01:28:09;100853.41;;;16.19;84.55
68199;BME280;55021;51.554;17.044;2023-08-24T01:43:13;100848.59;;;15.77;89.20
68199;BME280;55021;51.554;17.044;2023-08-24T01:58:16;100838.53;;;14.95;91.86
68199;BME280;55021;51.554;17.044;2023-08-24T02:13:18;100836.50;;;15.57;88.98
68199;BME280;55021;51.554;17.044;2023-08-24T02:28:20;100832.06;;;14.65;90.85
68199;BME280;55021;51.554;17.044;2023-08-24T02:43:22;100854.66;;;14.43;93.56
68199;BME280;55021;51.554;17.044;2023-08-24T02:58:25;100829.94;;;14.75;90.43
68199;BME280;55021;51.554;17.044;2023-08-24T03:13:28;100849.47;;;14.64;91.51
68199;BME280;55021;51.554;17.044;2023-08-24T03:28:31;100840.56;;;14.70;89.04
68199;BME280;55021;51.554;17.044;2023-08-24T03:43:34;100841.59;;;14.22;92.05
68199;BME280;55021;51.554;17.044;2023-08-24T03:58:37;100856.53;;;14.51;91.84
68199;BME280;55021;51.554;17.044;2023-08-24T04:13:39;100842.19;;;14.79;90.05
68199;BME280;55021;51.554;17.044;2023-08-24T04:28:41;100854.09;;;14.09;92.73
68199;BME280;55021;51.554;17.044;2023-08-24T04:43:43;100870.31;;;15.11;90.37
68199;BME280;55021;51.554;17.044;2023-08-24T04:58:53;100863.22;;;16.43;84.80
68199;BME280;55021;51.554;17.044;2023-08-24T05:13:55;100864.09;;;16.94;85.11
68199;BME280;55021;51.554;17.044;2023-08-24T05:28:58;100839.31;;;17.02;86.05
68199;BME280;55021;51.554;17.044;2023-08-24T05:44:00;100875.34;;;18.18;83.32
68199;BME280;55021;51.554;17.044;2023-08-24T05:59:03;100851.84;;;18.43;78.34
68199;BME280;55021;51.554;17.044;2023-08-24T06:14:05;100891.91;;;19.39;76.71
68199;BME280;55021;51.554;17.044;2023-08-24T06:29:08;100852.53;;;19.19;75.47
68199;BME280;55021;51.554;17.044;2023-08-24T06:44:10;100872.72;;;19.65;75.98
68199;BME280;55021;51.554;17.044;2023-08-24T06:59:13;100843.22;;;21.20;71.77
68199;BME280;55021;51.554;17.044;2023-08-24T07:14:16;100804.44;;;21.71;68.47
68199;BME280;55021;51.554;17.044;2023-08-24T07:29:18;100825.72;;;21.64;65.58
68199;BME280;55021;51.554;17.044;2023-08-24T07:44:24;100876.44;;;23.21;64.29
68199;BME280;55021;51.554;17.044;2023-08-24T07:59:55;100791.28;;;23.99;58.82
68199;BME280;55021;51.554;17.044;2023-08-24T08:15:03;100882.22;;;24.88;57.71
68199;BME280;55021;51.554;17.044;2023-08-24T08:30:31;100797.53;;;24.69;55.91
68199;BME280;55021;51.554;17.044;2023-08-24T08:45:47;100888.09;;;24.41;54.93
68199;BME280;55021;51.554;17.044;2023-08-24T09:01:05;100829.00;;;25.03;54.14
68199;BME280;55021;51.554;17.044;2023-08-24T09:16:14;100884.69;;;26.03;51.00
68199;BME280;55021;51.554;17.044;2023-08-24T09:31:23;100771.53;;;25.48;48.97
68199;BME280;55021;51.554;17.044;2023-08-24T09:46:49;100824.13;;;26.43;47.36
68199;BME280;55021;51.554;17.044;2023-08-24T10:01:51;100839.81;;;26.33;45.13
68199;BME280;55021;51.554;17.044;2023-08-24T10:16:56;100830.00;;;26.90;47.66
68199;BME280;55021;51.554;17.044;2023-08-24T10:32:00;100812.75;;;27.42;45.62
68199;BME280;55021;51.554;17.044;2023-08-24T10:47:07;100793.94;;;27.22;44.36
68199;BME280;55021;51.554;17.044;2023-08-24T11:02:18;100759.41;;;28.33;40.88
68199;BME280;55021;51.554;17.044;2023-08-24T11:17:21;100751.41;;;28.10;41.30
68199;BME280;55021;51.554;17.044;2023-08-24T11:32:23;100723.63;;;27.05;44.85
68199;BME280;55021;51.554;17.044;2023-08-24T11:47:26;100730.41;;;27.88;43.17
68199;BME280;55021;51.554;17.044;2023-08-24T12:02:28;100687.94;;;27.34;43.70
68199;BME280;55021;51.554;17.044;2023-08-24T12:17:41;100711.06;;;29.35;40.37
68199;BME280;55021;51.554;17.044;2023-08-24T12:32:45;100664.69;;;28.84;37.65
68199;BME280;55021;51.554;17.044;2023-08-24T12:47:47;100708.19;;;28.75;39.13
68199;BME280;55021;51.554;17.044;2023-08-24T13:02:50;100676.34;;;28.56;39.39
68199;BME280;55021;51.554;17.044;2023-08-24T13:17:53;100670.81;;;29.62;35.40
68199;BME280;55021;51.554;17.044;2023-08-24T13:32:55;100637.63;;;29.10;37.31
68199;BME280;55021;51.554;17.044;2023-08-24T13:47:58;100633.31;;;29.73;38.08
68199;BME280;55021;51.554;17.044;2023-08-24T14:03:00;100598.75;;;29.38;39.44
68199;BME280;55021;51.554;17.044;2023-08-24T14:18:03;100595.38;;;29.57;39.34
68199;BME280;55021;51.554;17.044;2023-08-24T14:33:06;100573.94;;;28.61;39.48
68199;BME280;55021;51.554;17.044;2023-08-24T14:48:09;100451.72;;;28.08;40.87
68199;BME280;55021;51.554;17.044;2023-08-24T15:03:11;100526.78;;;28.95;40.48
68199;BME280;55021;51.554;17.044;2023-08-24T15:18:14;100448.94;;;27.98;41.35
68199;BME280;55021;51.554;17.044;2023-08-24T15:33:18;100489.03;;;27.14;44.60
68199;BME280;55021;51.554;17.044;2023-08-24T15:48:21;100515.56;;;27.27;48.33
68199;BME280;55021;51.554;17.044;2023-08-24T16:03:27;100478.06;;;26.56;45.82
68199;BME280;55021;51.554;17.044;2023-08-24T16:18:29;100490.03;;;26.56;48.36
68199;BME280;55021;51.554;17.044;2023-08-24T16:33:32;100497.78;;;26.54;49.75
68199;BME280;55021;51.554;17.044;2023-08-24T16:48:34;100500.00;;;25.94;52.11
68199;BME280;55021;51.554;17.044;2023-08-24T17:03:37;100489.56;;;26.06;54.96
68199;BME280;55021;51.554;17.044;2023-08-24T17:18:40;100389.63;;;24.32;60.88
68199;BME280;55021;51.554;17.044;2023-08-24T17:33:42;100480.25;;;23.59;65.44
68199;BME280;55021;51.554;17.044;2023-08-24T17:48:44;100480.97;;;23.54;66.69
68199;BME280;55021;51.554;17.044;2023-08-24T18:03:47;100492.19;;;22.62;69.64
68199;BME280;55021;51.554;17.044;2023-08-24T18:18:50;100490.31;;;21.79;71.80
68199;BME280;55021;51.554;17.044;2023-08-24T18:33:52;100501.78;;;22.36;68.95
68199;BME280;55021;51.554;17.044;2023-08-24T18:48:54;100467.56;;;21.36;72.27
68199;BME280;55021;51.554;17.044;2023-08-24T19:03:56;100486.88;;;21.36;73.16
68199;BME280;55021;51.554;17.044;2023-08-24T19:18:59;100439.75;;;20.47;75.14
68199;BME280;55021;51.554;17.044;2023-08-24T19:34:08;100460.06;;;20.70;76.75
68199;BME280;55021;51.554;17.044;2023-08-24T19:49:11;100370.19;;;20.51;74.15
68199;BME280;55021;51.554;17.044;2023-08-24T20:04:13;100450.47;;;20.05;79.09
68199;BME280;55021;51.554;17.044;2023-08-24T20:19:16;100450.94;;;19.33;83.22
68199;BME280;55021;51.554;17.044;2023-08-24T20:34:18;100442.97;;;19.25;83.46
68199;BME280;55021;51.554;17.044;2023-08-24T20:49:21;100434.31;;;19.15;83.94
68199;BME280;55021;51.554;17.044;2023-08-24T21:04:23;100407.88;;;19.27;83.86
68199;BME280;55021;51.554;17.044;2023-08-24T21:19:27;100299.47;;;18.15;85.09
68199;BME280;55021;51.554;17.044;2023-08-24T21:34:30;100349.03;;;19.35;80.01
68199;BME280;55021;51.554;17.044;2023-08-24T21:49:32;100338.22;;;18.51;84.82
68199;BME280;55021;51.554;17.044;2023-08-24T22:04:34;100302.53;;;18.51;84.10
68199;BME280;55021;51.554;17.044;2023-08-24T22:19:37;100300.03;;;18.36;84.90
68199;BME280;55021;51.554;17.044;2023-08-24T22:34:40;100299.84;;;18.25;85.08
68199;BME280;55021;51.554;17.044;2023-08-24T22:49:43;100214.28;;;18.34;78.31
68199;BME280;55021;51.554;17.044;2023-08-24T23:04:47;100326.38;;;18.57;82.61
68199;BME280;55021;51.554;17.044;2023-08-24T23:20:20;100289.19;;;18.61;81.63
68199;BME280;55021;51.554;17.044;2023-08-24T23:35:23;100264.97;;;18.45;82.19
68199;BME280;55021;51.554;17.044;2023-08-24T23:50:26;100275.38;;;18.23;82.78
